createdAt,value
2023-02-27T00:00:22.126Z,79.50
2023-02-27T00:02:51.565Z,78.80
2023-02-27T00:05:19.805Z,78.40
2023-02-27T00:07:46.809Z,78.40
2023-02-27T00:10:14.288Z,78.70
2023-02-27T00:12:42.281Z,78.60
2023-02-27T00:15:18.121Z,79.20
2023-02-27T00:17:45.915Z,79.20
2023-02-27T00:20:15.172Z,79.20
2023-02-27T00:22:43.091Z,79.30
2023-02-27T00:25:10.858Z,79.30
2023-02-27T00:27:38.381Z,79.60
2023-02-27T00:30:07.378Z,80.40
2023-02-27T00:32:36.772Z,80.70
2023-02-27T00:35:05.805Z,80.40
2023-02-27T00:37:32.953Z,80.50
2023-02-27T00:40:00.957Z,80.80
2023-02-27T00:42:28.835Z,80.90
2023-02-27T00:44:56.097Z,81.00
2023-02-27T00:47:23.089Z,81.30
2023-02-27T00:49:50.185Z,81.50
2023-02-27T00:52:17.234Z,81.90
2023-02-27T00:54:44.669Z,82.60
2023-02-27T00:57:11.774Z,83.00
2023-02-27T00:59:40.727Z,83.60
2023-02-27T01:02:08.132Z,84.10
2023-02-27T01:04:35.245Z,84.70
2023-02-27T01:07:02.400Z,85.20
2023-02-27T01:09:29.531Z,85.30
2023-02-27T01:11:57.789Z,85.60
2023-02-27T01:14:25.089Z,86.20
2023-02-27T01:16:52.687Z,86.50
2023-02-27T01:19:20.011Z,87.00
2023-02-27T01:21:47.178Z,87.50
2023-02-27T01:24:14.331Z,88.10
2023-02-27T01:26:42.482Z,88.10
2023-02-27T01:29:10.354Z,88.50
2023-02-27T01:31:39.391Z,88.90
2023-02-27T01:34:06.559Z,89.40
2023-02-27T01:36:33.494Z,89.00
2023-02-27T01:39:01.268Z,89.00
2023-02-27T01:41:29.156Z,88.90
2023-02-27T01:44:11.037Z,89.00
2023-02-27T01:46:38.586Z,89.10
2023-02-27T01:49:18.109Z,89.60
2023-02-27T01:51:49.664Z,90.00
2023-02-27T01:54:21.858Z,90.00
2023-02-27T01:56:50.672Z,90.10
2023-02-27T01:59:18.821Z,90.30
2023-02-27T02:01:45.704Z,90.70
2023-02-27T02:04:17.730Z,90.90
2023-02-27T02:06:49.655Z,90.80
2023-02-27T02:09:20.185Z,91.00
2023-02-27T02:11:47.622Z,90.50
2023-02-27T02:14:18.401Z,90.50
2023-02-27T02:17:17.032Z,90.30
2023-02-27T02:20:02.976Z,90.30
2023-02-27T02:22:42.182Z,90.50
2023-02-27T02:25:09.249Z,90.80
2023-02-27T02:28:04.174Z,91.00
2023-02-27T02:30:57.755Z,91.30
2023-02-27T02:34:08.071Z,91.30
2023-02-27T02:37:17.343Z,91.40
2023-02-27T02:40:10.217Z,91.60
2023-02-27T02:42:54.024Z,91.80
2023-02-27T02:45:40.350Z,91.80
2023-02-27T02:48:29.518Z,91.50
2023-02-27T02:50:59.927Z,91.40
2023-02-27T02:53:43.176Z,91.50
2023-02-27T02:56:18.344Z,91.50
2023-02-27T02:59:17.496Z,91.50
2023-02-27T03:01:45.364Z,91.60
2023-02-27T03:04:23.259Z,91.60
2023-02-27T03:07:01.116Z,91.80
2023-02-27T03:09:39.935Z,92.00
2023-02-27T03:12:12.102Z,92.10
2023-02-27T03:15:03.606Z,92.00
2023-02-27T03:18:02.043Z,92.30
2023-02-27T03:20:33.999Z,92.20
2023-02-27T03:23:07.137Z,92.00
2023-02-27T03:25:36.185Z,92.10
2023-02-27T03:28:11.143Z,92.00
2023-02-27T03:30:44.965Z,92.00
2023-02-27T03:33:27.302Z,92.00
2023-02-27T03:36:01.339Z,91.90
2023-02-27T03:38:38.179Z,91.90
2023-02-27T03:41:11.838Z,92.10
2023-02-27T03:43:55.231Z,92.30
2023-02-27T03:46:26.812Z,92.50
2023-02-27T03:48:54.387Z,92.60
2023-02-27T03:51:24.380Z,92.70
2023-02-27T03:54:06.020Z,92.70
2023-02-27T03:56:39.598Z,92.60
2023-02-27T03:59:07.644Z,92.60
2023-02-27T04:01:36.831Z,92.50
2023-02-27T04:04:13.635Z,92.60
2023-02-27T04:07:34.921Z,93.20
2023-02-27T04:10:05.485Z,93.90
2023-02-27T04:12:53.923Z,93.70
2023-02-27T04:15:36.219Z,93.90
2023-02-27T04:18:30.268Z,93.40
2023-02-27T04:21:11.315Z,92.70
2023-02-27T04:23:49.385Z,92.40
2023-02-27T04:26:22.496Z,92.30
2023-02-27T04:29:04.158Z,92.60
2023-02-27T04:31:45.681Z,93.00
2023-02-27T04:34:29.311Z,93.10
2023-02-27T04:37:21.198Z,93.70
2023-02-27T04:39:51.597Z,93.50
2023-02-27T04:42:25.951Z,93.50
2023-02-27T04:44:58.209Z,93.60
2023-02-27T04:47:27.352Z,93.70
2023-02-27T04:50:11.305Z,94.00
2023-02-27T04:52:46.458Z,93.90
2023-02-27T04:55:25.458Z,94.00
2023-02-27T04:58:00.402Z,94.00
2023-02-27T05:00:28.752Z,94.10
2023-02-27T05:03:03.656Z,94.10
2023-02-27T05:05:34.702Z,93.80
2023-02-27T05:08:30.026Z,94.00
2023-02-27T05:11:21.408Z,94.40
2023-02-27T05:13:55.161Z,93.70
2023-02-27T05:16:39.402Z,93.60
2023-02-27T05:19:07.722Z,93.60
2023-02-27T05:21:50.838Z,93.60
2023-02-27T05:24:36.669Z,93.70
2023-02-27T05:27:13.216Z,93.80
2023-02-27T05:29:52.248Z,93.60
2023-02-27T05:32:31.390Z,93.70
2023-02-27T05:35:21.464Z,93.50
2023-02-27T05:38:09.695Z,93.60
2023-02-27T05:40:51.480Z,93.80
2023-02-27T05:43:28.744Z,93.80
2023-02-27T05:46:08.843Z,93.90
2023-02-27T05:48:47.950Z,93.90
2023-02-27T05:51:17.791Z,93.60
2023-02-27T05:53:53.102Z,93.90
2023-02-27T05:56:23.824Z,94.00
2023-02-27T05:58:56.744Z,94.20
2023-02-27T06:01:24.815Z,93.90
2023-02-27T06:03:51.666Z,93.80
2023-02-27T06:06:20.387Z,93.80
2023-02-27T06:08:47.607Z,93.70
2023-02-27T06:11:14.488Z,93.90
2023-02-27T06:13:42.205Z,93.70
2023-02-27T06:16:14.952Z,93.50
2023-02-27T06:18:42.298Z,93.40
2023-02-27T06:21:09.422Z,93.40
2023-02-27T06:23:36.573Z,93.70
2023-02-27T06:26:03.983Z,94.10
2023-02-27T06:28:31.206Z,94.40
2023-02-27T06:30:58.266Z,94.20
2023-02-27T06:33:26.236Z,94.00
2023-02-27T06:35:53.346Z,93.90
2023-02-27T06:38:20.520Z,93.40
2023-02-27T06:40:47.811Z,93.40
2023-02-27T06:43:15.113Z,93.60
2023-02-27T06:45:42.388Z,93.30
2023-02-27T06:48:12.683Z,93.30
2023-02-27T06:50:39.881Z,93.20
2023-02-27T06:53:07.208Z,93.30
2023-02-27T06:55:34.892Z,93.40
2023-02-27T06:58:01.951Z,93.50
2023-02-27T07:00:29.508Z,93.70
2023-02-27T07:02:56.459Z,93.70
2023-02-27T07:05:23.620Z,93.70
2023-02-27T07:07:51.193Z,93.60
2023-02-27T07:10:18.237Z,93.50
2023-02-27T07:12:45.767Z,93.40
2023-02-27T07:15:15.841Z,93.20
2023-02-27T07:17:42.888Z,93.00
2023-02-27T07:20:11.865Z,92.90
2023-02-27T07:22:40.615Z,92.80
2023-02-27T07:25:08.266Z,92.70
2023-02-27T07:27:35.266Z,92.70
2023-02-27T07:30:02.368Z,92.10
2023-02-27T07:32:29.370Z,91.80
2023-02-27T07:34:56.255Z,91.40
2023-02-27T07:37:23.120Z,91.00
2023-02-27T07:39:50.621Z,90.80
2023-02-27T07:42:17.516Z,90.50
2023-02-27T07:44:44.362Z,90.10
2023-02-27T07:47:11.514Z,90.00
2023-02-27T07:49:38.444Z,90.10
2023-02-27T07:52:07.748Z,89.80
2023-02-27T07:54:35.735Z,89.10
2023-02-27T07:57:04.118Z,88.50
2023-02-27T07:59:33.509Z,88.20
2023-02-27T08:02:00.383Z,88.80
2023-02-27T08:04:27.407Z,89.00
2023-02-27T08:06:54.374Z,88.10
2023-02-27T08:09:21.330Z,87.00
2023-02-27T08:11:49.225Z,86.70
2023-02-27T08:14:16.173Z,86.80
2023-02-27T08:16:43.170Z,86.90
2023-02-27T08:19:12.212Z,86.60
2023-02-27T08:21:39.169Z,86.60
2023-02-27T08:24:06.191Z,86.80
2023-02-27T08:26:33.360Z,87.00
2023-02-27T08:29:00.394Z,87.10
2023-02-27T08:31:27.185Z,86.90
2023-02-27T08:34:04.508Z,86.60
2023-02-27T08:36:36.619Z,86.80
2023-02-27T08:39:03.638Z,86.60
2023-02-27T08:41:30.738Z,86.80
2023-02-27T08:43:57.934Z,86.70
2023-02-27T08:46:25.174Z,86.70
2023-02-27T08:48:52.418Z,86.50
2023-02-27T08:51:19.443Z,85.60
2023-02-27T08:53:46.448Z,85.00
2023-02-27T08:56:13.478Z,84.50
2023-02-27T08:58:41.138Z,84.50
2023-02-27T09:01:11.905Z,84.50
2023-02-27T09:03:39.008Z,83.70
2023-02-27T09:06:06.370Z,83.50
2023-02-27T09:08:33.421Z,83.00
2023-02-27T09:11:00.819Z,82.10
2023-02-27T09:13:28.865Z,81.40
2023-02-27T09:15:56.004Z,81.10
2023-02-27T09:18:23.442Z,81.90
2023-02-27T09:20:52.065Z,80.50
2023-02-27T09:23:22.011Z,79.60
2023-02-27T09:25:49.196Z,79.20
2023-02-27T09:28:16.496Z,79.10
2023-02-27T09:30:43.394Z,78.20
2023-02-27T09:33:10.529Z,78.10
2023-02-27T09:35:38.290Z,78.30
2023-02-27T09:38:05.811Z,78.10
2023-02-27T09:40:38.702Z,76.70
2023-02-27T09:43:17.232Z,76.30
2023-02-27T09:45:47.895Z,75.60
2023-02-27T09:48:36.701Z,75.50
2023-02-27T09:51:04.558Z,75.00
2023-02-27T09:53:41.146Z,75.50
2023-02-27T09:56:19.992Z,75.70
2023-02-27T09:58:49.879Z,73.60
2023-02-27T10:01:22.172Z,72.40
2023-02-27T10:04:06.126Z,72.30
2023-02-27T10:06:53.203Z,70.80
2023-02-27T10:10:01.863Z,69.10
2023-02-27T10:13:22.918Z,68.20
2023-02-27T10:15:53.377Z,68.30
2023-02-27T10:18:30.851Z,68.00
2023-02-27T10:21:05.946Z,67.10
2023-02-27T10:23:51.047Z,66.70
2023-02-27T10:26:26.505Z,66.00
2023-02-27T10:28:53.867Z,65.40
2023-02-27T10:31:33.838Z,65.10
2023-02-27T10:34:01.464Z,65.00
2023-02-27T10:36:33.955Z,65.10
2023-02-27T10:39:07.293Z,63.40
2023-02-27T10:41:36.748Z,63.20
2023-02-27T10:44:05.006Z,63.50
2023-02-27T10:46:35.589Z,61.70
2023-02-27T10:49:19.206Z,62.50
2023-02-27T10:52:03.601Z,61.70
2023-02-27T10:54:30.636Z,61.70
2023-02-27T10:57:01.070Z,61.30
2023-02-27T10:59:40.463Z,59.90
2023-02-27T11:02:22.941Z,59.50
2023-02-27T11:04:55.458Z,60.00
2023-02-27T11:07:32.745Z,59.00
2023-02-27T11:10:07.495Z,58.70
2023-02-27T11:12:35.420Z,58.90
2023-02-27T11:15:22.726Z,57.70
2023-02-27T11:17:50.443Z,57.40
2023-02-27T11:20:29.879Z,57.30
2023-02-27T11:23:20.075Z,58.10
2023-02-27T11:25:48.363Z,61.50
2023-02-27T11:28:28.865Z,59.90
2023-02-27T11:31:06.088Z,59.00
2023-02-27T11:33:39.902Z,58.10
2023-02-27T11:36:07.468Z,57.50
2023-02-27T11:38:34.872Z,55.20
2023-02-27T11:41:07.669Z,55.20
2023-02-27T11:43:46.973Z,56.60
2023-02-27T11:46:46.560Z,56.40
2023-02-27T11:49:42.016Z,55.10
2023-02-27T11:52:31.164Z,53.40
2023-02-27T11:55:00.723Z,54.90
2023-02-27T11:57:32.703Z,55.70
2023-02-27T12:00:16.317Z,52.60
2023-02-27T12:02:58.322Z,53.20
2023-02-27T12:05:53.800Z,55.60
2023-02-27T12:08:47.383Z,55.20
2023-02-27T12:11:33.044Z,53.70
2023-02-27T12:14:10.745Z,52.80
2023-02-27T12:16:46.567Z,52.40
2023-02-27T12:19:19.529Z,53.90
2023-02-27T12:21:55.954Z,53.90
2023-02-27T12:24:32.205Z,51.90
2023-02-27T12:27:10.495Z,53.50
2023-02-27T12:29:49.398Z,51.00
2023-02-27T12:32:54.058Z,51.40
2023-02-27T12:35:28.423Z,50.60
2023-02-27T12:37:57.245Z,52.70
2023-02-27T12:40:37.534Z,53.10
2023-02-27T12:43:23.909Z,51.90
2023-02-27T12:46:31.382Z,52.30
2023-02-27T12:49:18.243Z,51.50
2023-02-27T12:52:21.122Z,51.30
2023-02-27T12:55:10.074Z,50.20
2023-02-27T12:58:03.486Z,50.50
2023-02-27T13:00:59.860Z,50.50
2023-02-27T13:03:39.997Z,48.80
2023-02-27T13:06:25.935Z,49.40
2023-02-27T13:08:55.969Z,50.40
2023-02-27T13:11:37.447Z,50.10
2023-02-27T13:14:21.237Z,49.00
2023-02-27T13:16:57.166Z,48.50
2023-02-27T13:19:29.166Z,49.10
2023-02-27T13:22:12.889Z,50.00
2023-02-27T13:24:48.424Z,49.70
2023-02-27T13:27:28.880Z,47.90
2023-02-27T13:30:16.637Z,48.70
2023-02-27T13:33:13.290Z,47.70
2023-02-27T13:36:06.584Z,47.30
2023-02-27T13:38:51.856Z,47.40
2023-02-27T13:41:25.134Z,46.60
2023-02-27T13:43:53.569Z,46.60
2023-02-27T13:46:26.267Z,46.60
2023-02-27T13:49:28.764Z,47.30
2023-02-27T13:52:04.866Z,46.70
2023-02-27T13:54:34.188Z,46.20
2023-02-27T13:57:22.131Z,46.40
2023-02-27T13:59:53.885Z,46.40
2023-02-27T14:02:56.552Z,45.60
2023-02-27T14:05:30.395Z,45.60
2023-02-27T14:08:12.735Z,45.40
2023-02-27T14:10:50.234Z,45.70
2023-02-27T14:13:45.512Z,45.10
2023-02-27T14:16:41.599Z,45.10
2023-02-27T14:19:18.062Z,45.40
2023-02-27T14:22:24.743Z,46.00
2023-02-27T14:25:03.470Z,45.30
2023-02-27T14:27:46.651Z,45.70
2023-02-27T14:30:42.649Z,45.20
2023-02-27T14:33:37.641Z,45.30
2023-02-27T14:36:10.154Z,46.40
2023-02-27T14:38:38.638Z,46.20
2023-02-27T14:41:19.559Z,46.20
2023-02-27T14:43:55.361Z,45.20
2023-02-27T14:46:30.737Z,46.40
2023-02-27T14:49:17.259Z,47.10
2023-02-27T14:51:45.345Z,48.60
2023-02-27T14:54:17.273Z,46.10
2023-02-27T14:56:59.572Z,45.10
2023-02-27T14:59:36.813Z,46.50
2023-02-27T15:02:07.049Z,48.70
2023-02-27T15:04:34.155Z,47.60
2023-02-27T15:07:01.395Z,45.90
2023-02-27T15:09:43.169Z,45.50
2023-02-27T15:12:17.780Z,45.10
2023-02-27T15:14:49.800Z,45.60
2023-02-27T15:17:22.074Z,45.70
2023-02-27T15:19:52.465Z,45.20
2023-02-27T15:22:38.655Z,46.20
2023-02-27T15:25:08.305Z,45.00
2023-02-27T15:27:37.713Z,45.50
2023-02-27T15:30:05.844Z,46.10
2023-02-27T15:32:36.015Z,46.10
2023-02-27T15:35:12.287Z,45.80
2023-02-27T15:37:39.660Z,46.20
2023-02-27T15:40:12.941Z,47.40
2023-02-27T15:42:40.189Z,49.40
2023-02-27T15:45:08.164Z,49.40
2023-02-27T15:47:35.568Z,50.20
2023-02-27T15:50:29.561Z,52.10
2023-02-27T15:53:12.525Z,52.00
2023-02-27T15:55:46.951Z,51.90
2023-02-27T15:58:19.438Z,52.00
2023-02-27T16:00:47.206Z,52.70
2023-02-27T16:03:22.134Z,53.20
2023-02-27T16:05:53.250Z,54.20
2023-02-27T16:08:24.472Z,54.30
2023-02-27T16:10:53.002Z,53.70
2023-02-27T16:13:40.035Z,53.80
2023-02-27T16:16:24.247Z,54.50
2023-02-27T16:18:54.751Z,53.70
2023-02-27T16:21:27.868Z,54.60
2023-02-27T16:23:55.412Z,53.80
2023-02-27T16:26:32.251Z,53.70
2023-02-27T16:29:19.563Z,53.20
2023-02-27T16:31:58.067Z,52.60
2023-02-27T16:34:28.009Z,51.60
2023-02-27T16:37:03.648Z,51.90
2023-02-27T16:39:31.840Z,52.40
2023-02-27T16:41:59.826Z,52.80
2023-02-27T16:44:27.111Z,54.50
2023-02-27T16:46:56.221Z,54.70
2023-02-27T16:49:26.481Z,55.90
2023-02-27T16:51:53.769Z,55.70
2023-02-27T16:54:21.240Z,55.90
2023-02-27T16:56:49.152Z,55.80
2023-02-27T16:59:36.586Z,56.10
2023-02-27T17:02:07.197Z,56.50
2023-02-27T17:04:36.955Z,56.70
2023-02-27T17:07:06.511Z,56.90
2023-02-27T17:09:35.230Z,57.20
2023-02-27T17:12:02.349Z,57.30
2023-02-27T17:14:29.395Z,57.70
2023-02-27T17:17:02.022Z,57.90
2023-02-27T17:19:29.283Z,58.40
2023-02-27T17:21:56.684Z,57.80
2023-02-27T17:24:24.100Z,58.40
2023-02-27T17:26:52.539Z,59.00
2023-02-27T17:29:20.031Z,59.30
2023-02-27T17:31:47.252Z,59.40
2023-02-27T17:34:15.581Z,58.50
2023-02-27T17:36:43.413Z,58.20
2023-02-27T17:39:15.645Z,58.10
2023-02-27T17:41:44.007Z,58.30
2023-02-27T17:44:12.412Z,58.90
2023-02-27T17:46:39.612Z,59.20
2023-02-27T17:49:07.092Z,59.40
2023-02-27T17:51:34.393Z,59.50
2023-02-27T17:54:03.993Z,59.90
2023-02-27T17:56:31.295Z,60.50
2023-02-27T17:58:58.957Z,61.20
2023-02-27T18:01:27.060Z,61.70
2023-02-27T18:03:54.959Z,61.90
2023-02-27T18:06:22.846Z,61.90
2023-02-27T18:08:50.212Z,61.80
2023-02-27T18:11:19.097Z,61.70
2023-02-27T18:13:46.951Z,61.90
2023-02-27T18:16:14.861Z,62.10
2023-02-27T18:18:43.176Z,62.20
2023-02-27T18:21:14.347Z,62.80
2023-02-27T18:23:42.100Z,62.80
2023-02-27T18:26:27.254Z,62.90
2023-02-27T18:29:00.449Z,63.10
2023-02-27T18:31:30.794Z,63.50
2023-02-27T18:33:58.112Z,63.80
2023-02-27T18:36:25.324Z,64.20
2023-02-27T18:38:52.348Z,64.50
2023-02-27T18:41:19.361Z,64.80
2023-02-27T18:43:46.348Z,64.90
2023-02-27T18:46:13.939Z,65.00
2023-02-27T18:48:43.316Z,65.10
2023-02-27T18:51:14.549Z,65.10
2023-02-27T18:53:44.610Z,65.60
2023-02-27T18:56:12.736Z,65.60
2023-02-27T18:58:40.414Z,65.70
2023-02-27T19:01:07.599Z,66.70
2023-02-27T19:03:35.933Z,66.40
2023-02-27T19:06:03.676Z,66.60
2023-02-27T19:08:31.533Z,67.10
2023-02-27T19:10:59.362Z,67.50
2023-02-27T19:13:27.092Z,67.70
2023-02-27T19:15:54.819Z,67.90
2023-02-27T19:18:21.857Z,68.00
2023-02-27T19:20:48.969Z,68.10
2023-02-27T19:23:15.979Z,68.80
2023-02-27T19:25:42.961Z,68.20
2023-02-27T19:28:12.472Z,68.10
2023-02-27T19:30:39.928Z,67.80
2023-02-27T19:33:07.118Z,67.70
2023-02-27T19:35:34.052Z,67.80
2023-02-27T19:38:01.187Z,68.10
2023-02-27T19:40:28.753Z,68.20
2023-02-27T19:42:55.744Z,68.60
2023-02-27T19:45:23.482Z,68.60
2023-02-27T19:47:50.733Z,68.80
2023-02-27T19:50:18.247Z,68.90
2023-02-27T19:52:45.277Z,69.00
2023-02-27T19:55:12.303Z,69.10
2023-02-27T19:57:39.382Z,69.20
2023-02-27T20:00:08.666Z,69.30
2023-02-27T20:02:42.989Z,69.30
2023-02-27T20:05:12.203Z,69.50
2023-02-27T20:07:40.391Z,69.80
2023-02-27T20:10:07.521Z,69.90
2023-02-27T20:12:34.560Z,70.10
2023-02-27T20:15:08.246Z,70.30
2023-02-27T20:17:35.780Z,70.50
2023-02-27T20:20:05.796Z,70.90
2023-02-27T20:22:33.242Z,71.70
2023-02-27T20:25:00.346Z,72.00
2023-02-27T20:27:28.162Z,71.90
2023-02-27T20:29:57.584Z,71.80
2023-02-27T20:32:25.411Z,71.90
2023-02-27T20:34:55.640Z,71.50
2023-02-27T20:37:23.323Z,71.20
2023-02-27T20:39:50.442Z,70.70
2023-02-27T20:42:17.509Z,70.30
2023-02-27T20:44:44.692Z,70.60
2023-02-27T20:47:11.820Z,71.50
2023-02-27T20:49:39.009Z,71.20
2023-02-27T20:52:06.176Z,71.80
2023-02-27T20:54:33.123Z,71.10
2023-02-27T20:57:00.278Z,70.90
2023-02-27T20:59:27.338Z,71.50
2023-02-27T21:01:55.329Z,71.60
2023-02-27T21:04:26.559Z,71.20
2023-02-27T21:06:54.958Z,71.10
2023-02-27T21:09:22.315Z,71.00
2023-02-27T21:11:50.277Z,71.20
2023-02-27T21:14:17.334Z,71.70
2023-02-27T21:16:44.187Z,72.20
2023-02-27T21:19:11.005Z,72.60
2023-02-27T21:21:38.058Z,72.80
2023-02-27T21:24:06.090Z,73.00
2023-02-27T21:26:35.403Z,73.20
2023-02-27T21:29:16.066Z,73.70
2023-02-27T21:31:45.514Z,73.10
2023-02-27T21:34:15.401Z,73.30
2023-02-27T21:42:20.954Z,71.60
2023-02-27T21:44:48.345Z,71.40
2023-02-27T21:47:15.788Z,71.40
2023-02-27T21:49:43.047Z,71.30
2023-02-27T21:52:09.918Z,71.10
2023-02-27T21:54:37.677Z,71.40
2023-02-27T21:57:05.093Z,71.00
2023-02-27T21:59:32.017Z,70.70
2023-02-27T22:01:59.054Z,70.60
2023-02-27T22:04:25.999Z,71.50
2023-02-27T22:06:53.060Z,72.50
2023-02-27T22:09:20.333Z,72.10
2023-02-27T22:11:47.690Z,72.00
2023-02-27T22:14:15.344Z,71.50
2023-02-27T22:16:42.693Z,71.40
2023-02-27T22:19:12.507Z,71.80
2023-02-27T22:21:40.088Z,72.30
2023-02-27T22:24:08.116Z,72.70
2023-02-27T22:26:35.841Z,73.30
2023-02-27T22:29:03.608Z,73.90
2023-02-27T22:31:33.874Z,74.10
2023-02-27T22:34:15.170Z,73.80
2023-02-27T22:36:42.019Z,73.30
2023-02-27T22:39:08.882Z,73.30
2023-02-27T22:41:38.381Z,73.30
2023-02-27T22:44:05.552Z,73.10
2023-02-27T22:46:45.235Z,72.70
2023-02-27T22:49:15.703Z,72.40
2023-02-27T22:51:42.781Z,72.10
2023-02-27T22:54:11.716Z,72.10
2023-02-27T22:56:38.627Z,72.50
2023-02-27T22:59:06.075Z,72.50
2023-02-27T23:01:35.355Z,72.00
2023-02-27T23:04:06.314Z,71.90
2023-02-27T23:06:39.100Z,71.90
2023-02-27T23:09:08.456Z,72.00
2023-02-27T23:11:35.278Z,72.60
2023-02-27T23:14:02.131Z,73.40
2023-02-27T23:16:29.342Z,73.70
2023-02-27T23:18:58.418Z,73.80
2023-02-27T23:21:29.665Z,74.30
2023-02-27T23:23:58.080Z,74.60
2023-02-27T23:26:28.306Z,74.90
2023-02-27T23:28:56.163Z,74.60
2023-02-27T23:31:23.432Z,74.80
2023-02-27T23:33:50.463Z,74.60
2023-02-27T23:36:17.762Z,74.50
2023-02-27T23:38:46.614Z,74.60
2023-02-27T23:41:17.318Z,74.90
2023-02-27T23:44:03.877Z,75.00
2023-02-27T23:46:30.988Z,75.30
2023-02-27T23:48:59.210Z,75.60
2023-02-27T23:51:28.385Z,75.70
2023-02-27T23:53:56.629Z,75.80
2023-02-27T23:56:26.875Z,75.90
2023-02-27T23:59:05.524Z,76.70
